KERI

Erie International / Tom Ridge Field Airport

Erie, Pennsylvania, USA
METAR KERI 210451Z AUTO 14014KT 10SM CLR 22/18 A2995 RMK AO2 SLP137 T02220178 402780183 TSNO
Observed Flight Rules
Aug-21 @ 04:51 UTC (9 hours ago) Visual Flight Rules
Wind Visibility Clouds
140° at 14 knots 10 miles
  • Clear skies
Temperatures Readings
Current 22°C / 72°F
Dewpoint 18°C / 64°F
Humidity 78%
Altimeter 29.95" Hg
Pressure 1013.7 hPa
Elevation 222
METAR KERI 210451Z AUTO 14014KT 10SM CLR 22/18 A2995 RMK AO2 SLP137 T02220178 402780183 TSNO
Observed Flight Rules
Aug-21 @ 04:51 UTC
(9 hours ago)
VFR
Wind Visibility
140° at 14 knots 10 miles
Clouds
  • Clear skies
Temperature Dewpoint
22°C / 72°F 18°C / 64°F
Humidity Altimeter Pressure
78% 29.95" Hg 1013.7 hPa